createdAt,value
2022-12-31T16:13:02.970Z,102366.50
2022-12-31T16:15:33.411Z,102369.28
2022-12-31T16:18:05.721Z,102362.09
2022-12-31T16:20:35.042Z,102372.75
2022-12-31T16:23:04.256Z,102378.38
2022-12-31T16:25:33.950Z,102374.34
2022-12-31T16:28:04.135Z,102380.13
2022-12-31T16:30:36.634Z,102383.31
2022-12-31T16:33:12.677Z,102397.22
2022-12-31T16:35:41.656Z,102400.59
2022-12-31T16:38:16.822Z,102397.84
2022-12-31T16:41:25.211Z,102395.94
2022-12-31T16:43:53.782Z,102395.75
2022-12-31T16:46:27.418Z,102387.66
2022-12-31T16:49:17.553Z,102399.13
2022-12-31T16:51:45.910Z,102400.00
2022-12-31T16:54:28.779Z,102405.25
2022-12-31T16:56:59.702Z,102413.13
2022-12-31T16:59:35.383Z,102415.78
2022-12-31T17:02:10.358Z,102410.44
2022-12-31T17:04:43.226Z,102408.63
2022-12-31T17:07:30.914Z,102415.09
2022-12-31T17:10:35.078Z,102418.03
2022-12-31T17:13:29.652Z,102418.97
2022-12-31T17:16:00.363Z,102430.63
2022-12-31T17:18:36.643Z,102427.94
2022-12-31T17:21:11.827Z,102441.34
2022-12-31T17:23:42.411Z,102441.34
2022-12-31T17:26:14.660Z,102446.69
2022-12-31T17:28:47.593Z,102438.91
2022-12-31T17:31:39.548Z,102432.59
2022-12-31T17:34:13.933Z,102430.78
2022-12-31T17:36:59.191Z,102431.91
2022-12-31T17:39:40.274Z,102432.94
2022-12-31T17:42:10.683Z,102434.06
2022-12-31T17:44:45.563Z,102435.00
2022-12-31T17:47:17.433Z,102433.25
2022-12-31T17:49:46.620Z,102439.72
2022-12-31T17:52:16.869Z,102436.19
2022-12-31T17:54:45.101Z,102438.81
2022-12-31T17:57:27.918Z,102436.97
2022-12-31T17:59:56.585Z,102448.38
2022-12-31T18:02:24.902Z,102449.91
2022-12-31T18:04:56.365Z,102456.94
2022-12-31T18:07:27.239Z,102463.13
2022-12-31T18:09:55.961Z,102458.75
2022-12-31T18:12:24.652Z,102457.03
2022-12-31T18:14:53.224Z,102460.47
2022-12-31T18:17:21.905Z,102457.72
2022-12-31T18:20:09.652Z,102459.34
2022-12-31T18:22:40.100Z,102468.16
2022-12-31T18:25:14.329Z,102463.75
2022-12-31T18:27:43.250Z,102470.84
2022-12-31T18:30:12.969Z,102486.91
2022-12-31T18:32:42.267Z,102485.94
2022-12-31T18:35:48.572Z,102485.16
2022-12-31T18:38:18.019Z,102480.59
2022-12-31T18:40:55.129Z,102486.91
2022-12-31T18:43:23.741Z,102478.06
2022-12-31T18:45:53.052Z,102479.78
2022-12-31T18:48:21.827Z,102479.03
2022-12-31T18:50:51.054Z,102486.25
2022-12-31T18:53:22.470Z,102493.38
2022-12-31T18:55:53.502Z,102489.16
2022-12-31T18:58:21.797Z,102494.50
2022-12-31T19:00:51.389Z,102492.91
2022-12-31T19:03:22.533Z,102502.66
2022-12-31T19:05:52.711Z,102490.09
2022-12-31T19:08:22.945Z,102494.66
2022-12-31T19:10:52.925Z,102494.72
2022-12-31T19:13:21.570Z,102501.94
2022-12-31T19:15:52.330Z,102497.66
2022-12-31T19:18:20.659Z,102507.63
2022-12-31T19:20:49.338Z,102514.00
2022-12-31T19:23:20.814Z,102506.88
2022-12-31T19:25:49.838Z,102501.44
2022-12-31T19:28:26.745Z,102505.81
2022-12-31T19:30:54.750Z,102509.59
2022-12-31T19:33:22.947Z,102513.31
2022-12-31T19:35:51.251Z,102511.56
2022-12-31T19:38:23.943Z,102507.25
2022-12-31T19:40:53.622Z,102508.34
2022-12-31T19:43:24.238Z,102521.81
2022-12-31T19:45:53.169Z,102516.28
2022-12-31T19:48:30.489Z,102527.06
2022-12-31T19:51:01.120Z,102523.53
2022-12-31T19:53:29.826Z,102520.13
2022-12-31T19:55:58.407Z,102517.56
2022-12-31T19:58:28.383Z,102521.94
2022-12-31T20:01:02.775Z,102513.13
2022-12-31T20:03:33.113Z,102515.97
2022-12-31T20:06:07.839Z,102509.06
2022-12-31T20:08:38.546Z,102522.94
2022-12-31T20:11:13.455Z,102519.28
2022-12-31T20:13:42.366Z,102517.31
2022-12-31T20:16:16.109Z,102527.91
2022-12-31T20:18:46.790Z,102531.38
2022-12-31T20:21:19.363Z,102532.53
2022-12-31T20:23:50.065Z,102531.59
2022-12-31T20:26:20.143Z,102537.75
2022-12-31T20:28:48.595Z,102534.03
2022-12-31T20:31:19.986Z,102539.63
2022-12-31T20:33:48.838Z,102540.41
2022-12-31T20:36:43.400Z,102537.66
2022-12-31T20:39:12.167Z,102535.84
2022-12-31T20:41:40.888Z,102531.31
2022-12-31T20:44:09.707Z,102532.16
2022-12-31T20:46:38.476Z,102531.44
2022-12-31T20:49:07.087Z,102534.34
2022-12-31T20:51:35.787Z,102529.63
2022-12-31T20:54:09.244Z,102543.88
2022-12-31T20:56:40.194Z,102547.50
2022-12-31T20:59:10.708Z,102540.41
2022-12-31T21:02:11.617Z,102542.22
2022-12-31T21:04:28.536Z,102532.50
2022-12-31T21:06:57.338Z,102527.06
2022-12-31T21:09:26.000Z,102524.47
2022-12-31T21:12:12.962Z,102523.53
2022-12-31T21:14:44.689Z,102519.81
2022-12-31T21:17:13.776Z,102531.31
2022-12-31T21:19:41.882Z,102527.78
2022-12-31T21:22:10.635Z,102525.00
2022-12-31T21:24:40.012Z,102528.53
2022-12-31T21:27:08.410Z,102526.72
2022-12-31T21:29:55.635Z,102532.88
2022-12-31T21:32:26.153Z,102528.41
2022-12-31T21:35:31.186Z,102531.94
2022-12-31T21:37:58.953Z,102533.59
2022-12-31T21:40:30.445Z,102537.19
2022-12-31T21:42:59.380Z,102534.69
2022-12-31T21:45:28.213Z,102535.69
2022-12-31T21:48:18.546Z,102543.72
2022-12-31T21:50:52.395Z,102541.03
2022-12-31T21:53:26.255Z,102532.94
2022-12-31T21:56:09.870Z,102531.06
2022-12-31T21:58:41.401Z,102543.56
2022-12-31T22:01:40.145Z,102546.53
2022-12-31T22:04:28.277Z,102541.88
2022-12-31T22:06:57.638Z,102546.13
2022-12-31T22:09:25.807Z,102548.03
2022-12-31T22:11:54.307Z,102542.69
2022-12-31T22:14:22.844Z,102555.97
2022-12-31T22:16:51.543Z,102549.84
2022-12-31T22:19:19.859Z,102547.19
2022-12-31T22:21:48.219Z,102552.44
2022-12-31T22:24:16.754Z,102559.50
2022-12-31T22:26:46.952Z,102558.50
2022-12-31T22:29:15.833Z,102552.97
2022-12-31T22:31:44.539Z,102558.09
2022-12-31T22:34:12.747Z,102558.03
2022-12-31T22:36:40.974Z,102547.25
2022-12-31T22:39:44.428Z,102549.91
2022-12-31T22:42:03.819Z,102552.44
2022-12-31T22:44:31.971Z,102556.06
2022-12-31T22:47:00.354Z,102551.59
2022-12-31T22:49:28.648Z,102541.66
2022-12-31T22:51:59.902Z,102542.72
2022-12-31T22:54:31.339Z,102540.91
2022-12-31T22:57:00.025Z,102542.06
2022-12-31T22:59:28.329Z,102539.38
2022-12-31T23:01:56.995Z,102538.69
2022-12-31T23:04:25.387Z,102536.06
2022-12-31T23:06:53.646Z,102541.50
2022-12-31T23:09:40.832Z,102543.31
2022-12-31T23:12:12.135Z,102538.97
2022-12-31T23:14:59.067Z,102541.75
2022-12-31T23:17:46.704Z,102534.69
2022-12-31T23:20:34.947Z,102536.31
2022-12-31T23:23:10.171Z,102538.22
2022-12-31T23:25:41.678Z,102532.94
2022-12-31T23:28:12.838Z,102524.13
2022-12-31T23:30:41.672Z,102521.56
2022-12-31T23:33:18.300Z,102529.56
2022-12-31T23:35:47.142Z,102529.63
2022-12-31T23:38:18.586Z,102531.44
2022-12-31T23:40:47.474Z,102524.38
2022-12-31T23:43:21.565Z,102522.56
2022-12-31T23:45:53.973Z,102518.16
2022-12-31T23:48:22.610Z,102519.88
2022-12-31T23:50:53.990Z,102514.53
2022-12-31T23:53:25.692Z,102509.28
2022-12-31T23:55:54.825Z,102511.00
2022-12-31T23:58:23.650Z,102507.34
